createdAt,value
2022-12-14T00:00:29.190Z,-3.84
2022-12-14T00:01:07.112Z,-3.84
2022-12-14T00:01:38.695Z,-3.85
2022-12-14T00:02:10.323Z,-3.83
2022-12-14T00:02:42.455Z,-3.86
2022-12-14T00:03:14.925Z,-3.82
2022-12-14T00:03:47.149Z,-3.80
2022-12-14T00:04:18.714Z,-3.83
2022-12-14T00:04:50.374Z,-3.83
2022-12-14T00:05:21.903Z,-3.84
2022-12-14T00:05:53.492Z,-3.86
2022-12-14T00:06:27.982Z,-3.84
2022-12-14T00:06:59.627Z,-3.84
2022-12-14T00:07:31.286Z,-3.83
2022-12-14T00:08:03.004Z,-3.82
2022-12-14T00:08:41.351Z,-3.85
2022-12-14T00:09:13.359Z,-3.85
2022-12-14T00:09:47.194Z,-3.87
2022-12-14T00:10:18.773Z,-3.88
2022-12-14T00:10:50.360Z,-3.87
2022-12-14T00:11:24.826Z,-3.86
2022-12-14T00:11:56.367Z,-3.88
2022-12-14T00:12:27.889Z,-3.93
2022-12-14T00:13:00.409Z,-3.93
2022-12-14T00:13:32.035Z,-3.93
2022-12-14T00:14:04.472Z,-4.01
2022-12-14T00:14:36.077Z,-3.99
2022-12-14T00:15:08.858Z,-3.96
2022-12-14T00:15:40.812Z,-3.97
2022-12-14T00:16:14.413Z,-3.92
2022-12-14T00:16:46.260Z,-3.87
2022-12-14T00:17:17.857Z,-3.88
2022-12-14T00:17:50.190Z,-3.83
2022-12-14T00:18:22.721Z,-3.79
2022-12-14T00:18:56.147Z,-3.79
2022-12-14T00:19:27.874Z,-3.78
2022-12-14T00:19:59.887Z,-3.78
2022-12-14T00:20:33.236Z,-3.76
2022-12-14T00:21:12.759Z,-3.78
2022-12-14T00:21:44.311Z,-3.82
2022-12-14T00:22:16.122Z,-3.79
2022-12-14T00:22:47.879Z,-3.80
2022-12-14T00:23:19.590Z,-3.82
2022-12-14T00:23:52.495Z,-3.84
2022-12-14T00:24:24.407Z,-3.84
2022-12-14T00:24:55.947Z,-3.85
2022-12-14T00:25:27.540Z,-3.85
2022-12-14T00:25:59.162Z,-3.85
2022-12-14T00:26:31.775Z,-3.84
2022-12-14T00:27:03.641Z,-3.87
2022-12-14T00:27:35.248Z,-3.84
2022-12-14T00:28:06.750Z,-3.85
2022-12-14T00:28:38.607Z,-3.87
2022-12-14T00:29:10.135Z,-3.87
2022-12-14T00:29:41.641Z,-3.88
2022-12-14T00:30:15.474Z,-3.89
2022-12-14T00:30:47.006Z,-3.91
2022-12-14T00:31:19.292Z,-3.88
2022-12-14T00:31:51.151Z,-3.88
2022-12-14T00:32:23.211Z,-3.92
2022-12-14T00:32:54.945Z,-3.92
2022-12-14T00:33:26.698Z,-3.92
2022-12-14T00:33:58.346Z,-3.95
2022-12-14T00:34:30.932Z,-3.93
2022-12-14T00:35:02.519Z,-3.96
2022-12-14T00:35:34.011Z,-4.09
2022-12-14T00:36:07.084Z,-4.20
2022-12-14T00:36:38.653Z,-4.10
2022-12-14T00:37:10.147Z,-4.05
2022-12-14T00:37:41.743Z,-4.09
2022-12-14T00:38:13.240Z,-4.10
2022-12-14T00:38:44.968Z,-4.11
2022-12-14T00:39:16.612Z,-4.14
2022-12-14T00:39:48.250Z,-4.07
2022-12-14T00:40:19.793Z,-4.05
2022-12-14T00:40:51.413Z,-4.09
2022-12-14T00:41:23.084Z,-4.12
2022-12-14T00:41:54.638Z,-4.19
2022-12-14T00:42:26.158Z,-4.18
2022-12-14T00:42:57.739Z,-4.12
2022-12-14T00:43:29.342Z,-3.99
2022-12-14T00:44:00.895Z,-3.93
2022-12-14T00:44:32.458Z,-3.94
2022-12-14T00:45:07.681Z,-4.02
2022-12-14T00:45:39.965Z,-4.06
2022-12-14T00:46:11.541Z,-4.04
2022-12-14T00:46:43.140Z,-4.10
2022-12-14T00:47:14.655Z,-4.13
2022-12-14T00:47:46.184Z,-3.94
2022-12-14T00:48:19.508Z,-3.99
2022-12-14T00:48:51.030Z,-4.08
2022-12-14T00:49:22.529Z,-4.14
2022-12-14T00:49:54.350Z,-4.06
2022-12-14T00:50:26.065Z,-4.05
2022-12-14T00:50:57.886Z,-4.11
2022-12-14T00:51:29.538Z,-4.15
2022-12-14T00:52:01.066Z,-3.96
2022-12-14T00:52:33.077Z,-3.95
2022-12-14T00:53:04.765Z,-4.00
2022-12-14T00:53:36.345Z,-3.96
2022-12-14T00:54:07.884Z,-3.97
2022-12-14T00:54:39.403Z,-4.08
2022-12-14T00:55:11.527Z,-4.00
2022-12-14T00:55:49.494Z,-4.00
2022-12-14T00:56:21.477Z,-4.06
2022-12-14T00:56:53.158Z,-4.11
2022-12-14T00:57:24.664Z,-4.17
2022-12-14T00:57:56.219Z,-4.16
2022-12-14T00:58:28.250Z,-4.09
2022-12-14T00:59:00.256Z,-4.10
2022-12-14T00:59:31.762Z,-3.99
2022-12-14T01:00:04.025Z,-3.98
2022-12-14T01:00:35.635Z,-3.92
2022-12-14T01:01:10.118Z,-3.97
2022-12-14T01:01:41.791Z,-4.09
2022-12-14T01:02:13.660Z,-4.06
2022-12-14T01:02:45.369Z,-4.09
2022-12-14T01:03:16.952Z,-4.07
2022-12-14T01:03:48.948Z,-4.09
2022-12-14T01:04:22.515Z,-4.10
2022-12-14T01:04:54.163Z,-4.11
2022-12-14T01:05:26.014Z,-3.94
2022-12-14T01:05:57.687Z,-3.96
2022-12-14T01:06:29.189Z,-4.02
2022-12-14T01:07:00.758Z,-4.10
2022-12-14T01:07:32.352Z,-4.10
2022-12-14T01:08:04.113Z,-4.17
2022-12-14T01:08:36.217Z,-4.14
2022-12-14T01:09:08.099Z,-4.03
2022-12-14T01:09:39.709Z,-4.13
2022-12-14T01:10:11.282Z,-4.10
2022-12-14T01:10:42.991Z,-3.94
2022-12-14T01:11:15.449Z,-4.07
2022-12-14T01:11:47.064Z,-4.07
2022-12-14T01:12:18.563Z,-4.06
2022-12-14T01:12:50.098Z,-4.02
2022-12-14T01:13:21.900Z,-4.07
2022-12-14T01:13:55.884Z,-4.07
2022-12-14T01:14:27.386Z,-3.91
2022-12-14T01:14:58.941Z,-3.89
2022-12-14T01:15:30.429Z,-3.78
2022-12-14T01:16:04.200Z,-3.72
2022-12-14T01:16:35.798Z,-3.88
2022-12-14T01:17:07.387Z,-3.91
2022-12-14T01:17:39.502Z,-3.98
2022-12-14T01:18:11.122Z,-4.03
2022-12-14T01:18:43.492Z,-4.07
2022-12-14T01:19:15.987Z,-4.00
2022-12-14T01:19:49.130Z,-3.82
2022-12-14T01:20:21.041Z,-3.83
2022-12-14T01:20:52.643Z,-3.91
2022-12-14T01:21:24.418Z,-3.76
2022-12-14T01:21:56.078Z,-3.70
2022-12-14T01:22:27.933Z,-3.67
2022-12-14T01:22:59.617Z,-3.67
2022-12-14T01:23:31.120Z,-3.74
2022-12-14T01:24:04.631Z,-3.70
2022-12-14T01:24:36.398Z,-3.70
2022-12-14T01:25:08.268Z,-3.76
2022-12-14T01:25:39.775Z,-3.81
2022-12-14T01:26:13.136Z,-3.87
2022-12-14T01:26:44.661Z,-3.83
2022-12-14T01:27:16.192Z,-3.74
2022-12-14T01:27:47.738Z,-3.71
2022-12-14T01:28:19.973Z,-3.70
2022-12-14T01:28:52.916Z,-3.79
2022-12-14T01:29:24.695Z,-3.85
2022-12-14T01:29:56.224Z,-3.90
2022-12-14T01:30:27.787Z,-3.92
2022-12-14T01:30:59.342Z,-4.00
2022-12-14T01:31:34.047Z,-4.06
2022-12-14T01:32:05.950Z,-3.90
2022-12-14T01:32:37.525Z,-3.84
2022-12-14T01:33:09.210Z,-3.81
2022-12-14T01:33:40.748Z,-3.80
2022-12-14T01:34:12.446Z,-3.75
2022-12-14T01:34:44.114Z,-3.75
2022-12-14T01:35:15.675Z,-3.84
2022-12-14T01:35:47.212Z,-3.95
2022-12-14T01:36:20.655Z,-3.82
2022-12-14T01:36:52.181Z,-3.87
2022-12-14T01:37:23.724Z,-3.91
2022-12-14T01:37:55.266Z,-3.86
2022-12-14T01:38:26.892Z,-3.93
2022-12-14T01:39:03.936Z,-3.88
2022-12-14T01:39:35.627Z,-3.78
2022-12-14T01:40:07.887Z,-3.78
2022-12-14T01:40:39.636Z,-3.91
2022-12-14T01:41:22.918Z,-3.95
2022-12-14T01:41:54.513Z,-3.84
2022-12-14T01:42:26.076Z,-3.79
2022-12-14T01:42:57.626Z,-3.75
2022-12-14T01:43:54.061Z,-3.76
2022-12-14T01:44:25.552Z,-3.74
2022-12-14T01:44:58.498Z,-3.72
2022-12-14T01:45:30.269Z,-3.76
2022-12-14T01:46:01.835Z,-3.77
2022-12-14T01:46:35.069Z,-3.85
2022-12-14T01:47:17.628Z,-3.79
2022-12-14T01:47:54.315Z,-3.92
2022-12-14T01:48:25.965Z,-4.01
2022-12-14T01:49:07.832Z,-4.09
2022-12-14T01:49:43.553Z,-4.13
2022-12-14T01:50:51.863Z,-4.02
2022-12-14T01:51:24.625Z,-4.15
2022-12-14T01:52:10.032Z,-4.00
2022-12-14T01:52:44.370Z,-4.11
2022-12-14T01:53:19.715Z,-4.12
2022-12-14T01:53:51.592Z,-4.14
2022-12-14T01:54:24.038Z,-3.97
2022-12-14T01:55:23.146Z,-4.07
2022-12-14T01:55:55.501Z,-4.08
2022-12-14T01:56:27.206Z,-4.14
2022-12-14T01:56:59.475Z,-4.19
2022-12-14T01:57:38.502Z,-4.17
2022-12-14T01:58:17.360Z,-4.14
2022-12-14T01:58:48.980Z,-4.07
2022-12-14T01:59:27.519Z,-4.16
2022-12-14T02:00:05.194Z,-4.18
2022-12-14T02:00:38.771Z,-4.19
2022-12-14T02:01:11.422Z,-4.24
2022-12-14T02:01:43.177Z,-4.22
2022-12-14T02:02:15.659Z,-4.12
2022-12-14T02:02:54.423Z,-4.00
2022-12-14T02:03:39.203Z,-4.18
2022-12-14T02:04:13.380Z,-4.22
2022-12-14T02:04:55.990Z,-4.16
2022-12-14T02:05:27.804Z,-4.20
2022-12-14T02:06:12.598Z,-4.24
2022-12-14T02:06:44.678Z,-4.17
2022-12-14T02:07:16.930Z,-4.18
2022-12-14T02:07:50.083Z,-4.22
2022-12-14T02:08:23.171Z,-4.20
2022-12-14T02:08:55.609Z,-4.25
2022-12-14T02:09:30.026Z,-4.16
2022-12-14T02:10:03.384Z,-4.02
2022-12-14T02:10:35.439Z,-4.11
2022-12-14T02:11:07.505Z,-4.03
2022-12-14T02:11:58.883Z,-4.00
2022-12-14T02:12:35.255Z,-4.13
2022-12-14T02:13:11.225Z,-4.01
2022-12-14T02:13:43.323Z,-4.04
2022-12-14T02:14:15.288Z,-4.06
2022-12-14T02:14:47.354Z,-4.03
2022-12-14T02:15:19.029Z,-4.01
2022-12-14T02:15:51.721Z,-4.06
2022-12-14T02:16:23.537Z,-4.07
2022-12-14T02:16:56.362Z,-4.10
2022-12-14T02:17:29.003Z,-4.24
2022-12-14T02:18:03.210Z,-4.21
2022-12-14T02:18:35.285Z,-4.21
2022-12-14T02:19:07.009Z,-4.18
2022-12-14T02:19:38.715Z,-4.20
2022-12-14T02:20:11.226Z,-4.17
2022-12-14T02:21:09.634Z,-4.32
2022-12-14T02:22:13.299Z,-4.18
2022-12-14T02:23:02.948Z,-4.23
2022-12-14T02:23:49.495Z,-4.21
2022-12-14T02:24:38.925Z,-4.05
2022-12-14T02:25:34.624Z,-4.04
2022-12-14T02:26:14.503Z,-4.13
2022-12-14T02:26:52.141Z,-4.19
2022-12-14T02:27:23.650Z,-4.21
2022-12-14T02:28:36.522Z,-4.30
2022-12-14T02:29:16.268Z,-4.36
2022-12-14T02:30:06.565Z,-4.33
2022-12-14T02:30:40.065Z,-4.39
2022-12-14T02:31:36.108Z,-4.44
2022-12-14T02:32:34.979Z,-4.40
2022-12-14T02:33:53.862Z,-4.23
2022-12-14T02:34:49.883Z,-4.41
2022-12-14T02:35:42.843Z,-4.39
2022-12-14T02:36:52.733Z,-4.36
2022-12-14T02:37:30.415Z,-4.28
2022-12-14T02:38:17.480Z,-4.49
2022-12-14T02:39:13.441Z,-4.48
2022-12-14T02:40:10.240Z,-4.41
2022-12-14T02:40:56.809Z,-4.41
2022-12-14T02:41:40.655Z,-4.39
2022-12-14T02:42:15.195Z,-4.46
2022-12-14T02:43:07.928Z,-4.54
2022-12-14T02:43:58.929Z,-4.56
2022-12-14T02:44:51.493Z,-4.48
2022-12-14T02:45:43.227Z,-4.54
2022-12-14T02:46:34.774Z,-4.67
2022-12-14T02:47:23.884Z,-4.65
2022-12-14T02:48:01.672Z,-4.55
2022-12-14T02:48:39.074Z,-4.61
2022-12-14T02:49:16.277Z,-4.62
2022-12-14T02:50:10.697Z,-4.42
2022-12-14T02:50:47.033Z,-4.47
2022-12-14T02:51:31.646Z,-4.56
2022-12-14T02:52:21.875Z,-4.74
2022-12-14T02:53:14.881Z,-4.86
2022-12-14T02:53:54.173Z,-4.79
2022-12-14T02:54:49.392Z,-5.01
2022-12-14T02:55:25.991Z,-5.02
2022-12-14T02:56:01.735Z,-5.09
2022-12-14T02:56:39.987Z,-5.11
2022-12-14T02:57:11.516Z,-5.11
2022-12-14T02:57:45.663Z,-5.08
2022-12-14T02:58:20.743Z,-5.13
2022-12-14T02:58:53.633Z,-5.09
2022-12-14T02:59:25.704Z,-5.13
2022-12-14T03:00:00.704Z,-5.15
2022-12-14T03:00:34.122Z,-5.16
2022-12-14T03:01:08.859Z,-5.16
2022-12-14T03:01:41.944Z,-5.18
2022-12-14T03:02:19.389Z,-5.24
2022-12-14T03:02:51.682Z,-5.26
2022-12-14T03:03:23.564Z,-5.26
2022-12-14T03:03:55.791Z,-5.28
2022-12-14T03:04:27.432Z,-5.28
2022-12-14T03:04:58.986Z,-5.29
2022-12-14T03:05:30.542Z,-5.41
2022-12-14T03:06:14.495Z,-5.43
2022-12-14T03:06:53.806Z,-5.41
2022-12-14T03:07:34.064Z,-5.47
2022-12-14T03:08:09.435Z,-5.52
2022-12-14T03:08:43.682Z,-5.43
2022-12-14T03:09:17.621Z,-5.51
2022-12-14T03:09:49.236Z,-5.50
2022-12-14T03:10:28.219Z,-5.49
2022-12-14T03:11:05.420Z,-5.49
2022-12-14T03:11:41.246Z,-5.49
2022-12-14T03:12:13.475Z,-5.37
2022-12-14T03:12:48.513Z,-5.47
2022-12-14T03:13:25.707Z,-5.51
2022-12-14T03:14:08.318Z,-5.59
2022-12-14T03:14:43.578Z,-5.59
2022-12-14T03:15:15.958Z,-5.60
2022-12-14T03:15:52.599Z,-5.64
2022-12-14T03:16:41.612Z,-5.68
2022-12-14T03:17:19.636Z,-5.74
2022-12-14T03:17:53.990Z,-5.74
2022-12-14T03:18:27.626Z,-5.80
2022-12-14T03:19:15.263Z,-5.79
2022-12-14T03:19:59.253Z,-5.83
2022-12-14T03:20:33.896Z,-5.84
2022-12-14T03:21:09.543Z,-5.69
2022-12-14T03:21:44.639Z,-5.65
2022-12-14T03:22:28.719Z,-5.73
2022-12-14T03:23:09.594Z,-5.79
2022-12-14T03:23:44.049Z,-5.83
2022-12-14T03:24:20.810Z,-5.79
2022-12-14T03:24:59.068Z,-5.85
2022-12-14T03:25:45.020Z,-5.88
2022-12-14T03:26:27.359Z,-5.76
2022-12-14T03:27:11.043Z,-5.84
2022-12-14T03:27:55.475Z,-5.93
2022-12-14T03:28:34.969Z,-5.93
2022-12-14T03:29:14.973Z,-5.92
2022-12-14T03:30:11.370Z,-5.82
2022-12-14T03:30:59.859Z,-5.81
2022-12-14T03:31:38.412Z,-5.76
2022-12-14T03:32:12.807Z,-5.80
2022-12-14T03:32:48.158Z,-5.83
2022-12-14T03:33:22.075Z,-5.77
2022-12-14T03:33:55.817Z,-5.83
2022-12-14T03:34:34.928Z,-5.93
2022-12-14T03:35:20.955Z,-5.89
2022-12-14T03:36:05.234Z,-5.76
2022-12-14T03:36:47.494Z,-5.84
2022-12-14T03:37:25.875Z,-5.86
2022-12-14T03:38:03.954Z,-5.95
2022-12-14T03:38:51.144Z,-6.02
2022-12-14T03:39:32.130Z,-5.87
2022-12-14T03:40:04.418Z,-5.71
2022-12-14T03:40:52.716Z,-5.57
2022-12-14T03:41:50.946Z,-5.48
2022-12-14T03:42:37.333Z,-5.51
2022-12-14T03:43:14.653Z,-5.43
2022-12-14T03:44:04.612Z,-5.42
2022-12-14T03:44:49.342Z,-5.42
2022-12-14T03:45:30.248Z,-5.29
2022-12-14T03:46:10.847Z,-5.25
2022-12-14T03:47:00.525Z,-5.82
2022-12-14T03:47:46.127Z,-5.93
2022-12-14T03:49:06.975Z,-6.12
2022-12-14T03:50:02.159Z,-6.25
2022-12-14T03:50:39.353Z,-6.27
2022-12-14T03:51:20.530Z,-6.29
2022-12-14T03:52:02.978Z,-6.31
2022-12-14T03:52:42.671Z,-6.29
2022-12-14T03:53:15.939Z,-6.20
2022-12-14T03:53:51.778Z,-6.18
2022-12-14T03:55:18.963Z,-6.09
2022-12-14T03:56:17.366Z,-5.66
2022-12-14T03:57:27.785Z,-5.53
2022-12-14T03:58:14.428Z,-5.41
2022-12-14T03:58:57.427Z,-5.32
2022-12-14T03:59:39.048Z,-5.25
2022-12-14T04:00:13.931Z,-5.26
2022-12-14T04:00:53.714Z,-5.25
2022-12-14T04:01:43.186Z,-5.25
2022-12-14T04:02:55.369Z,-5.21
2022-12-14T04:03:31.065Z,-5.23
2022-12-14T04:04:21.037Z,-5.15
2022-12-14T04:05:03.509Z,-5.14
2022-12-14T04:05:49.654Z,-5.15
2022-12-14T04:06:32.935Z,-5.15
2022-12-14T04:07:04.599Z,-5.17
2022-12-14T04:07:41.879Z,-5.16
2022-12-14T04:08:33.263Z,-5.16
2022-12-14T04:09:10.568Z,-5.18
2022-12-14T04:09:52.916Z,-5.22
2022-12-14T04:10:49.766Z,-5.20
2022-12-14T04:11:41.404Z,-5.27
2022-12-14T04:12:35.633Z,-5.18
2022-12-14T04:13:30.912Z,-5.18
2022-12-14T04:14:30.619Z,-5.17
2022-12-14T04:15:39.079Z,-5.18
2022-12-14T04:16:34.325Z,-5.14
2022-12-14T04:17:29.233Z,-5.12
2022-12-14T04:18:23.968Z,-5.15
2022-12-14T04:18:59.842Z,-5.22
2022-12-14T04:19:38.827Z,-5.24
2022-12-14T04:20:16.863Z,-5.24
2022-12-14T04:20:52.085Z,-5.31
2022-12-14T04:21:31.107Z,-5.34
2022-12-14T04:22:05.137Z,-5.32
2022-12-14T04:22:43.985Z,-5.36
2022-12-14T04:23:43.081Z,-5.43
2022-12-14T04:24:52.005Z,-5.48
2022-12-14T04:25:47.104Z,-5.55
2022-12-14T04:26:25.386Z,-5.47
2022-12-14T04:27:08.458Z,-5.49
2022-12-14T04:27:55.174Z,-5.64
2022-12-14T04:28:50.142Z,-5.54
2022-12-14T04:29:47.282Z,-5.59
2022-12-14T04:30:19.336Z,-5.98
2022-12-14T04:30:50.905Z,-6.01
2022-12-14T04:31:25.233Z,-5.92
2022-12-14T04:32:06.147Z,-5.90
2022-12-14T04:32:54.730Z,-5.89
2022-12-14T04:33:58.709Z,-6.09
2022-12-14T04:34:31.018Z,-6.24
2022-12-14T04:35:20.340Z,-6.29
2022-12-14T04:35:53.823Z,-6.40
2022-12-14T04:36:30.895Z,-6.40
2022-12-14T04:37:06.033Z,-6.43
2022-12-14T04:37:39.490Z,-6.31
2022-12-14T04:38:15.989Z,-6.30
2022-12-14T04:38:49.098Z,-6.37
2022-12-14T04:39:30.761Z,-6.38
2022-12-14T04:40:14.658Z,-6.41
2022-12-14T04:40:55.858Z,-6.39
2022-12-14T04:41:31.407Z,-6.33
2022-12-14T04:42:04.920Z,-6.44
2022-12-14T04:42:42.319Z,-6.42
2022-12-14T04:43:17.316Z,-6.44
2022-12-14T04:43:51.005Z,-6.32
2022-12-14T04:44:26.641Z,-6.33
2022-12-14T04:45:12.053Z,-6.37
2022-12-14T04:45:50.958Z,-6.30
2022-12-14T04:46:26.292Z,-6.48
2022-12-14T04:46:59.163Z,-6.37
2022-12-14T04:47:35.420Z,-6.51
2022-12-14T04:48:27.292Z,-6.52
2022-12-14T04:49:08.914Z,-6.68
2022-12-14T04:49:50.078Z,-6.72
2022-12-14T04:50:34.921Z,-6.75
2022-12-14T04:51:14.955Z,-6.75
2022-12-14T04:52:05.657Z,-6.51
2022-12-14T04:52:44.063Z,-6.35
2022-12-14T04:53:24.841Z,-6.18
2022-12-14T04:53:58.047Z,-6.06
2022-12-14T04:54:42.728Z,-5.92
2022-12-14T04:55:33.465Z,-5.76
2022-12-14T04:56:10.820Z,-5.71
2022-12-14T04:56:50.003Z,-5.71
2022-12-14T04:57:27.897Z,-5.64
2022-12-14T04:58:22.892Z,-5.62
2022-12-14T04:58:54.736Z,-5.58
2022-12-14T04:59:26.541Z,-5.57
2022-12-14T04:59:58.549Z,-5.57
2022-12-14T05:00:32.760Z,-5.56
2022-12-14T05:01:16.607Z,-5.55
2022-12-14T05:01:55.096Z,-5.61
2022-12-14T05:02:42.077Z,-5.63
2022-12-14T05:03:28.399Z,-5.55
2022-12-14T05:04:18.692Z,-5.56
2022-12-14T05:05:28.565Z,-5.52
2022-12-14T05:06:05.934Z,-5.49
2022-12-14T05:06:58.754Z,-5.50
2022-12-14T05:08:15.005Z,-5.52
2022-12-14T05:09:05.298Z,-5.53
2022-12-14T05:09:59.782Z,-5.52
2022-12-14T05:10:43.964Z,-5.53
2022-12-14T05:11:52.401Z,-5.51
2022-12-14T05:12:26.139Z,-5.53
2022-12-14T05:13:09.147Z,-5.57
2022-12-14T05:13:44.834Z,-5.61
2022-12-14T05:14:49.900Z,-5.55
2022-12-14T05:15:46.523Z,-5.55
2022-12-14T05:16:20.212Z,-5.55
2022-12-14T05:16:51.841Z,-5.57
2022-12-14T05:17:25.109Z,-5.58
2022-12-14T05:17:56.848Z,-5.58
2022-12-14T05:18:28.422Z,-5.56
2022-12-14T05:19:00.022Z,-5.56
2022-12-14T05:19:31.606Z,-5.59
2022-12-14T05:20:04.457Z,-5.55
2022-12-14T05:20:36.083Z,-5.61
2022-12-14T05:21:08.539Z,-5.65
2022-12-14T05:21:49.244Z,-5.66
2022-12-14T05:22:21.365Z,-5.62
2022-12-14T05:22:52.895Z,-5.58
2022-12-14T05:23:24.625Z,-5.54
2022-12-14T05:23:57.970Z,-5.58
2022-12-14T05:24:29.488Z,-5.58
2022-12-14T05:25:01.097Z,-5.55
2022-12-14T05:25:32.656Z,-5.53
2022-12-14T05:26:04.453Z,-5.54
2022-12-14T05:26:36.227Z,-5.57
2022-12-14T05:27:07.797Z,-5.55
2022-12-14T05:27:39.606Z,-5.53
2022-12-14T05:28:11.560Z,-5.52
2022-12-14T05:28:48.802Z,-5.50
2022-12-14T05:29:21.919Z,-5.51
2022-12-14T05:29:53.424Z,-5.49
2022-12-14T05:30:25.203Z,-5.50
2022-12-14T05:30:56.850Z,-5.49
2022-12-14T05:31:28.444Z,-5.46
2022-12-14T05:32:00.875Z,-5.49
2022-12-14T05:32:33.079Z,-5.45
2022-12-14T05:33:04.636Z,-5.50
2022-12-14T05:33:36.139Z,-5.50
2022-12-14T05:34:07.826Z,-5.53
2022-12-14T05:34:39.887Z,-5.56
2022-12-14T05:35:15.347Z,-5.58
2022-12-14T05:35:46.916Z,-5.58
2022-12-14T05:36:19.611Z,-5.63
2022-12-14T05:36:51.130Z,-5.63
2022-12-14T05:37:22.648Z,-5.61
2022-12-14T05:37:54.140Z,-5.61
2022-12-14T05:38:26.473Z,-5.62
2022-12-14T05:38:58.005Z,-5.64
2022-12-14T05:39:29.880Z,-5.64
2022-12-14T05:40:02.015Z,-5.62
2022-12-14T05:40:33.599Z,-5.63
2022-12-14T05:41:05.192Z,-5.64
2022-12-14T05:41:36.716Z,-5.65
2022-12-14T05:42:08.299Z,-5.66
2022-12-14T05:42:44.728Z,-5.67
2022-12-14T05:43:18.355Z,-5.63
2022-12-14T05:43:49.935Z,-5.66
2022-12-14T05:44:21.580Z,-5.67
2022-12-14T05:44:53.119Z,-5.65
2022-12-14T05:45:24.672Z,-5.66
2022-12-14T05:46:03.706Z,-5.62
2022-12-14T05:46:35.254Z,-5.66
2022-12-14T05:47:06.822Z,-5.69
2022-12-14T05:47:38.479Z,-5.69
2022-12-14T05:48:10.010Z,-5.72
2022-12-14T05:48:44.849Z,-5.72
2022-12-14T05:49:20.476Z,-5.69
2022-12-14T05:49:51.965Z,-5.72
2022-12-14T05:50:23.871Z,-5.73
2022-12-14T05:50:55.430Z,-5.77
2022-12-14T05:51:27.159Z,-5.80
2022-12-14T05:51:58.747Z,-5.79
2022-12-14T05:52:30.272Z,-5.82
2022-12-14T05:53:01.863Z,-6.07
2022-12-14T05:53:34.569Z,-6.25
2022-12-14T05:54:06.149Z,-6.37
2022-12-14T05:54:37.711Z,-6.44
2022-12-14T05:55:09.597Z,-6.33
2022-12-14T05:55:47.412Z,-6.18
2022-12-14T05:56:20.942Z,-6.15
2022-12-14T05:56:52.535Z,-6.13
2022-12-14T05:57:24.122Z,-6.10
2022-12-14T05:57:56.076Z,-6.06
2022-12-14T05:58:27.667Z,-6.04
2022-12-14T05:58:59.267Z,-6.04
2022-12-14T05:59:30.977Z,-6.05
2022-12-14T06:00:04.117Z,-6.03
2022-12-14T06:00:36.352Z,-5.99
2022-12-14T06:01:15.450Z,-5.98
2022-12-14T06:01:50.899Z,-5.99
2022-12-14T06:02:22.579Z,-6.00
2022-12-14T06:02:55.637Z,-5.96
2022-12-14T06:03:27.746Z,-5.94
2022-12-14T06:03:59.550Z,-5.96
2022-12-14T06:04:31.351Z,-5.97
2022-12-14T06:05:03.016Z,-5.96
2022-12-14T06:05:34.534Z,-5.92
2022-12-14T06:06:08.467Z,-5.91
2022-12-14T06:06:40.093Z,-5.90
2022-12-14T06:07:12.633Z,-5.92
2022-12-14T06:07:44.201Z,-5.92
2022-12-14T06:08:15.675Z,-5.89
2022-12-14T06:08:47.591Z,-5.90
2022-12-14T06:09:19.705Z,-5.90
2022-12-14T06:09:51.216Z,-5.90
2022-12-14T06:10:23.191Z,-5.92
2022-12-14T06:11:11.165Z,-5.89
2022-12-14T06:11:43.498Z,-5.88
2022-12-14T06:12:15.026Z,-5.88
2022-12-14T06:12:46.512Z,-5.88
2022-12-14T06:13:18.057Z,-5.88
2022-12-14T06:13:50.068Z,-5.87
2022-12-14T06:14:21.727Z,-5.84
2022-12-14T06:14:53.386Z,-5.84
2022-12-14T06:15:29.412Z,-5.83
2022-12-14T06:16:13.030Z,-5.84
2022-12-14T06:16:45.846Z,-5.83
2022-12-14T06:17:17.394Z,-5.82
2022-12-14T06:17:48.924Z,-5.85
2022-12-14T06:18:20.575Z,-5.87
2022-12-14T06:18:57.200Z,-5.92
2022-12-14T06:19:28.716Z,-5.96
2022-12-14T06:20:00.233Z,-5.98
2022-12-14T06:20:31.722Z,-6.00
2022-12-14T06:21:03.478Z,-6.00
2022-12-14T06:21:38.060Z,-6.01
2022-12-14T06:22:09.584Z,-6.02
2022-12-14T06:22:47.248Z,-5.99
2022-12-14T06:23:19.173Z,-6.02
2022-12-14T06:23:50.724Z,-6.04
2022-12-14T06:24:22.407Z,-6.02
2022-12-14T06:24:53.933Z,-6.04
2022-12-14T06:25:25.634Z,-6.20
2022-12-14T06:25:57.179Z,-6.30
2022-12-14T06:26:30.728Z,-6.56
2022-12-14T06:27:02.348Z,-6.75
2022-12-14T06:27:34.209Z,-6.74
2022-12-14T06:28:05.922Z,-6.73
2022-12-14T06:28:37.806Z,-6.89
2022-12-14T06:29:17.997Z,-6.96
2022-12-14T06:29:49.627Z,-6.96
2022-12-14T06:30:21.281Z,-7.10
2022-12-14T06:30:53.020Z,-7.06
2022-12-14T06:31:30.415Z,-7.10
2022-12-14T06:32:01.948Z,-7.09
2022-12-14T06:32:33.537Z,-7.28
2022-12-14T06:33:05.048Z,-7.18
2022-12-14T06:33:36.597Z,-7.12
2022-12-14T06:34:09.382Z,-7.10
2022-12-14T06:34:42.549Z,-7.06
2022-12-14T06:35:14.150Z,-7.09
2022-12-14T06:35:46.792Z,-7.07
2022-12-14T06:36:29.366Z,-7.07
2022-12-14T06:37:00.998Z,-7.22
2022-12-14T06:37:32.572Z,-7.28
2022-12-14T06:38:04.090Z,-7.36
2022-12-14T06:38:35.633Z,-7.39
2022-12-14T06:39:15.663Z,-7.43
2022-12-14T06:39:53.925Z,-7.50
2022-12-14T06:40:25.906Z,-7.56
2022-12-14T06:40:57.451Z,-7.63
2022-12-14T06:41:29.002Z,-7.64
2022-12-14T06:42:00.510Z,-7.71
2022-12-14T06:42:32.009Z,-7.71
2022-12-14T06:43:04.082Z,-7.69
2022-12-14T06:43:35.831Z,-7.64
2022-12-14T06:44:10.500Z,-7.75
2022-12-14T06:44:41.990Z,-7.73
2022-12-14T06:45:13.632Z,-7.63
2022-12-14T06:45:45.139Z,-7.60
2022-12-14T06:46:18.690Z,-7.54
2022-12-14T06:46:50.392Z,-7.42
2022-12-14T06:47:22.077Z,-7.41
2022-12-14T06:47:53.674Z,-7.40
2022-12-14T06:48:25.250Z,-7.30
2022-12-14T06:48:56.896Z,-7.35
2022-12-14T06:49:28.494Z,-7.51
2022-12-14T06:49:59.981Z,-7.61
2022-12-14T06:50:31.530Z,-7.67
2022-12-14T06:51:04.311Z,-7.76
2022-12-14T06:51:40.468Z,-7.82
2022-12-14T06:52:12.183Z,-7.94
2022-12-14T06:52:43.698Z,-7.95
2022-12-14T06:53:15.245Z,-7.99
2022-12-14T06:53:50.299Z,-8.03
2022-12-14T06:54:21.869Z,-8.04
2022-12-14T06:54:53.607Z,-8.02
2022-12-14T06:55:26.068Z,-8.06
2022-12-14T06:56:10.422Z,-8.03
2022-12-14T06:56:43.613Z,-7.87
2022-12-14T06:57:15.190Z,-7.86
2022-12-14T06:57:46.668Z,-7.83
2022-12-14T06:58:18.244Z,-7.87
2022-12-14T06:58:50.682Z,-7.94
2022-12-14T06:59:22.307Z,-7.98
2022-12-14T06:59:53.845Z,-7.99
2022-12-14T07:00:25.477Z,-8.09
2022-12-14T07:01:01.728Z,-8.18
2022-12-14T07:01:33.443Z,-8.26
2022-12-14T07:02:05.253Z,-8.29
2022-12-14T07:02:37.956Z,-8.26
2022-12-14T07:03:10.412Z,-8.13
2022-12-14T07:03:43.231Z,-8.15
2022-12-14T07:04:16.520Z,-8.20
2022-12-14T07:04:48.113Z,-8.15
2022-12-14T07:05:19.952Z,-8.06
2022-12-14T07:05:56.602Z,-7.96
2022-12-14T07:06:33.151Z,-7.95
2022-12-14T07:07:05.485Z,-7.89
2022-12-14T07:07:37.082Z,-7.92
2022-12-14T07:08:08.663Z,-7.91
2022-12-14T07:08:40.600Z,-7.86
2022-12-14T07:09:13.457Z,-7.80
2022-12-14T07:09:45.026Z,-7.88
2022-12-14T07:10:17.114Z,-7.87
2022-12-14T07:10:48.843Z,-7.76
2022-12-14T07:11:21.008Z,-7.79
2022-12-14T07:11:52.588Z,-7.82
2022-12-14T07:12:24.126Z,-7.82
2022-12-14T07:12:55.678Z,-7.86
2022-12-14T07:13:27.623Z,-8.03
2022-12-14T07:14:06.045Z,-8.23
2022-12-14T07:14:37.580Z,-8.15
2022-12-14T07:15:10.218Z,-8.24
2022-12-14T07:15:41.738Z,-8.24
2022-12-14T07:16:18.853Z,-8.14
2022-12-14T07:16:50.960Z,-8.16
2022-12-14T07:17:22.720Z,-8.18
2022-12-14T07:17:54.348Z,-8.28
2022-12-14T07:18:26.295Z,-8.31
2022-12-14T07:18:58.244Z,-8.39
2022-12-14T07:19:29.762Z,-8.42
2022-12-14T07:20:01.261Z,-8.36
2022-12-14T07:20:32.943Z,-8.28
2022-12-14T07:21:07.576Z,-8.25
2022-12-14T07:21:39.065Z,-8.24
2022-12-14T07:22:10.602Z,-8.22
2022-12-14T07:22:42.224Z,-8.21
2022-12-14T07:23:26.217Z,-8.21
2022-12-14T07:24:00.319Z,-8.22
2022-12-14T07:24:31.958Z,-8.28
2022-12-14T07:25:03.702Z,-8.25
2022-12-14T07:25:35.225Z,-8.24
2022-12-14T07:26:09.603Z,-8.22
2022-12-14T07:26:41.185Z,-8.20
2022-12-14T07:27:12.732Z,-8.16
2022-12-14T07:27:46.281Z,-8.13
2022-12-14T07:28:18.142Z,-8.11
2022-12-14T07:28:50.407Z,-8.10
2022-12-14T07:29:22.174Z,-8.10
2022-12-14T07:29:54.564Z,-8.08
2022-12-14T07:30:26.355Z,-8.06
2022-12-14T07:30:59.401Z,-8.03
2022-12-14T07:31:31.008Z,-8.03
2022-12-14T07:32:02.997Z,-8.00
2022-12-14T07:32:34.666Z,-8.00
2022-12-14T07:33:06.197Z,-8.03
2022-12-14T07:33:38.269Z,-8.04
2022-12-14T07:34:12.587Z,-8.06
2022-12-14T07:34:44.110Z,-8.04
2022-12-14T07:35:16.885Z,-8.04
2022-12-14T07:35:48.564Z,-7.96
2022-12-14T07:36:20.900Z,-8.00
2022-12-14T07:36:53.437Z,-8.08
2022-12-14T07:37:24.939Z,-8.08
2022-12-14T07:37:56.425Z,-8.08
2022-12-14T07:38:27.926Z,-8.14
2022-12-14T07:38:59.421Z,-8.26
2022-12-14T07:39:30.961Z,-8.28
2022-12-14T07:40:04.038Z,-8.32
2022-12-14T07:40:35.560Z,-8.32
2022-12-14T07:41:21.854Z,-8.29
2022-12-14T07:41:54.656Z,-8.32
2022-12-14T07:42:26.240Z,-8.26
2022-12-14T07:42:57.736Z,-8.25
2022-12-14T07:43:29.674Z,-8.40
2022-12-14T07:44:01.537Z,-8.39
2022-12-14T07:44:33.019Z,-8.32
2022-12-14T07:45:04.988Z,-8.29
2022-12-14T07:45:37.726Z,-8.26
2022-12-14T07:46:12.265Z,-8.30
2022-12-14T07:46:43.905Z,-8.39
2022-12-14T07:47:16.851Z,-8.37